Kielce, Poland
Current Conditions -  °F | °C
As of 1:30 PM on Friday 24 Oct 2014 (Local Time) from EPKK Reporting Station
Broken Clouds Broken Clouds  
Wind Chill: 30°   Ceiling: 1700
Heat Index: 37°   Visibility: 6mi
Dew Point: 32°   Wind: 12mph
Humidity: 81%   Direction: 80°E
Pressure: 30.27"   Gusts: NA
Location:  50.89°N, 20.65°E
Report Text: EPKK 241130Z 08010KT 030V110 9999 BKN017 03/M00 Q1025
Loading
Personal Weather Stations






























Interactive Weather Map
Tropical Storm Tracking
New forecast layout! Learn more

10-Day Weather Forecast

Advertisements
Track Severe Weather on mobile